DAL2285 KATL-KDAB
Flight info
| Callsign | DAL2285 |
|---|---|
| Flight time | 0h 57m |
| Altitude | 35000 |
| Route | VRSTY3 NOKIE YANTI KYLEG TTHOR3 |
| Aircraft | A320/M-SDE3FGHIRWY/LB1 |
Departure
| Time | 2026-05-07 15:41 |
|---|---|
| Airport | Hartsfield Jackson Atlanta International Airport (KATL) |
Arrival
| Time | 2026-05-07 16:39 |
|---|---|
| Airport | Daytona Beach International Airport (KDAB) |
| Time | Latitude | Longitude | Altitude | Speed | Heading |
|---|---|---|---|---|---|
| 2026-05-07 15:16 | 33.64001 | -84.43637 | 1036 ft | 0 kts | 90° |
| 2026-05-07 15:29 | 33.64001 | -84.43649 | 1036 ft | 4 kts | 90° |
| 2026-05-07 15:30 | 33.64002 | -84.43681 | 1036 ft | 4 kts | 99° |
| 2026-05-07 15:30 | 33.64010 | -84.43710 | 1036 ft | 4 kts | 133° |
| 2026-05-07 15:30 | 33.64027 | -84.43722 | 1036 ft | 1 kts | 180° |
| 2026-05-07 15:33 | 33.64022 | -84.43722 | 1036 ft | 5 kts | 180° |
| 2026-05-07 15:33 | 33.63860 | -84.43723 | 1036 ft | 21 kts | 180° |
| 2026-05-07 15:33 | 33.63758 | -84.43724 | 1036 ft | 12 kts | 180° |
| 2026-05-07 15:34 | 33.63743 | -84.43724 | 1036 ft | 0 kts | 180° |
| 2026-05-07 15:34 | 33.63682 | -84.43723 | 1036 ft | 16 kts | 174° |
| 2026-05-07 15:34 | 33.63662 | -84.43597 | 1036 ft | 17 kts | 88° |
| 2026-05-07 15:35 | 33.63664 | -84.43460 | 1035 ft | 16 kts | 89° |
| 2026-05-07 15:35 | 33.63665 | -84.43326 | 1035 ft | 16 kts | 90° |
| 2026-05-07 15:35 | 33.63665 | -84.43199 | 1035 ft | 16 kts | 90° |
| 2026-05-07 15:35 | 33.63664 | -84.43054 | 1035 ft | 17 kts | 90° |
| 2026-05-07 15:36 | 33.63664 | -84.42917 | 1035 ft | 16 kts | 89° |
| 2026-05-07 15:36 | 33.63664 | -84.42780 | 1036 ft | 16 kts | 92° |
| 2026-05-07 15:36 | 33.63656 | -84.42655 | 1036 ft | 15 kts | 93° |
| 2026-05-07 15:36 | 33.63655 | -84.42537 | 1036 ft | 14 kts | 89° |
| 2026-05-07 15:37 | 33.63656 | -84.42415 | 1036 ft | 19 kts | 90° |
| 2026-05-07 15:37 | 33.63656 | -84.42193 | 1036 ft | 30 kts | 90° |
| 2026-05-07 15:37 | 33.63657 | -84.41937 | 1036 ft | 33 kts | 89° |
| 2026-05-07 15:37 | 33.63656 | -84.41660 | 1035 ft | 33 kts | 90° |
| 2026-05-07 15:38 | 33.63656 | -84.41370 | 1035 ft | 36 kts | 91° |
| 2026-05-07 15:38 | 33.63657 | -84.41090 | 1036 ft | 31 kts | 89° |
| 2026-05-07 15:38 | 33.63657 | -84.40971 | 1036 ft | 5 kts | 91° |
| 2026-05-07 15:38 | 33.63657 | -84.40970 | 1036 ft | 0 kts | 91° |
| 2026-05-07 15:39 | 33.63657 | -84.40966 | 1036 ft | 1 kts | 91° |
| 2026-05-07 15:39 | 33.63657 | -84.40960 | 1035 ft | 1 kts | 91° |
| 2026-05-07 15:39 | 33.63657 | -84.40959 | 1035 ft | 0 kts | 91° |
| 2026-05-07 15:39 | 33.63637 | -84.40919 | 1035 ft | 20 kts | 142° |
| 2026-05-07 15:40 | 33.63487 | -84.40930 | 1036 ft | 17 kts | 219° |
| 2026-05-07 15:40 | 33.63472 | -84.41021 | 1035 ft | 0 kts | 271° |
| 2026-05-07 15:40 | 33.63472 | -84.41025 | 1035 ft | 4 kts | 271° |
| 2026-05-07 15:40 | 33.63476 | -84.41353 | 1035 ft | 83 kts | 271° |
| 2026-05-07 15:41 | 33.63476 | -84.42366 | 1037 ft | 157 kts | 269° |
| 2026-05-07 15:41 | 33.63450 | -84.43864 | 1360 ft | 193 kts | 272° |
| 2026-05-07 15:41 | 33.63457 | -84.45581 | 2016 ft | 218 kts | 273° |
| 2026-05-07 15:41 | 33.63476 | -84.47475 | 2769 ft | 232 kts | 271° |
| 2026-05-07 15:42 | 33.63479 | -84.49437 | 3593 ft | 238 kts | 269° |
| 2026-05-07 15:42 | 33.63459 | -84.51453 | 4449 ft | 246 kts | 269° |
| 2026-05-07 15:42 | 33.63425 | -84.53524 | 5310 ft | 250 kts | 268° |
| 2026-05-07 15:42 | 33.63346 | -84.55622 | 6204 ft | 254 kts | 266° |
| 2026-05-07 15:43 | 33.63175 | -84.57742 | 7058 ft | 256 kts | 263° |
| 2026-05-07 15:43 | 33.63057 | -84.59831 | 8120 ft | 248 kts | 270° |
| 2026-05-07 15:43 | 33.63111 | -84.61894 | 9018 ft | 248 kts | 270° |
| 2026-05-07 15:43 | 33.62952 | -84.63929 | 9852 ft | 250 kts | 257° |
| 2026-05-07 15:44 | 33.62258 | -84.65857 | 10590 ft | 257 kts | 240° |
| 2026-05-07 15:44 | 33.60991 | -84.67453 | 11362 ft | 267 kts | 223° |
| 2026-05-07 15:44 | 33.59394 | -84.68590 | 12130 ft | 274 kts | 214° |
| 2026-05-07 15:44 | 33.57541 | -84.69314 | 12890 ft | 289 kts | 199° |
| 2026-05-07 15:45 | 33.55478 | -84.69365 | 13588 ft | 308 kts | 183° |
| 2026-05-07 15:45 | 33.53336 | -84.68957 | 14237 ft | 313 kts | 182° |
| 2026-05-07 15:45 | 33.51174 | -84.68539 | 14867 ft | 316 kts | 183° |
| 2026-05-07 15:45 | 33.48990 | -84.68120 | 15527 ft | 319 kts | 184° |
| 2026-05-07 15:46 | 33.44558 | -84.67081 | 16830 ft | 340 kts | 172° |
| 2026-05-07 15:46 | 33.42389 | -84.65733 | 17406 ft | 365 kts | 155° |
| 2026-05-07 15:46 | 33.40463 | -84.63563 | 17609 ft | 401 kts | 135° |
| 2026-05-07 15:47 | 33.38953 | -84.60619 | 17758 ft | 426 kts | 126° |
| 2026-05-07 15:47 | 33.37469 | -84.57467 | 17887 ft | 443 kts | 126° |
| 2026-05-07 15:47 | 33.35926 | -84.54210 | 18025 ft | 458 kts | 126° |
| 2026-05-07 15:47 | 33.34328 | -84.50860 | 18297 ft | 468 kts | 126° |
| 2026-05-07 15:48 | 33.32698 | -84.47459 | 18723 ft | 473 kts | 126° |
| 2026-05-07 15:48 | 33.31050 | -84.44039 | 19206 ft | 476 kts | 126° |
| 2026-05-07 15:48 | 33.29390 | -84.40606 | 19687 ft | 479 kts | 126° |
| 2026-05-07 15:48 | 33.27722 | -84.37154 | 20190 ft | 481 kts | 126° |
| 2026-05-07 15:49 | 33.26043 | -84.33686 | 20654 ft | 483 kts | 126° |
| 2026-05-07 15:49 | 33.24353 | -84.30200 | 21120 ft | 486 kts | 126° |
| 2026-05-07 15:49 | 33.22654 | -84.26700 | 21632 ft | 489 kts | 127° |
| 2026-05-07 15:49 | 33.20968 | -84.23233 | 22074 ft | 491 kts | 127° |
| 2026-05-07 15:50 | 33.19248 | -84.19697 | 22491 ft | 493 kts | 127° |
| 2026-05-07 15:50 | 33.17521 | -84.16149 | 22898 ft | 496 kts | 127° |
| 2026-05-07 15:50 | 33.15786 | -84.12587 | 23286 ft | 498 kts | 127° |
| 2026-05-07 15:50 | 33.14043 | -84.09010 | 23647 ft | 500 kts | 127° |
| 2026-05-07 15:51 | 33.12287 | -84.05414 | 23949 ft | 502 kts | 127° |
| 2026-05-07 15:51 | 33.10502 | -84.01828 | 24294 ft | 502 kts | 130° |
| 2026-05-07 15:51 | 33.08422 | -83.98528 | 24622 ft | 494 kts | 139° |
| 2026-05-07 15:51 | 33.06013 | -83.95654 | 24974 ft | 486 kts | 148° |
| 2026-05-07 15:52 | 33.03346 | -83.93232 | 25367 ft | 480 kts | 155° |
| 2026-05-07 15:52 | 33.00600 | -83.90963 | 25685 ft | 481 kts | 154° |
| 2026-05-07 15:52 | 32.97841 | -83.88670 | 25912 ft | 485 kts | 154° |
| 2026-05-07 15:52 | 32.95071 | -83.86355 | 26190 ft | 488 kts | 153° |
| 2026-05-07 15:53 | 32.92292 | -83.84022 | 26501 ft | 490 kts | 153° |
| 2026-05-07 15:53 | 32.89500 | -83.81677 | 26795 ft | 492 kts | 153° |
| 2026-05-07 15:53 | 32.86695 | -83.79330 | 27075 ft | 493 kts | 153° |
| 2026-05-07 15:53 | 32.83882 | -83.76986 | 27345 ft | 495 kts | 153° |
| 2026-05-07 15:54 | 32.81052 | -83.74631 | 27610 ft | 497 kts | 153° |
| 2026-05-07 15:54 | 32.78218 | -83.72272 | 27868 ft | 498 kts | 153° |
| 2026-05-07 15:54 | 32.75378 | -83.69907 | 28119 ft | 500 kts | 153° |
| 2026-05-07 15:54 | 32.72522 | -83.67534 | 28326 ft | 501 kts | 153° |
| 2026-05-07 15:55 | 32.69670 | -83.65165 | 28602 ft | 501 kts | 153° |
| 2026-05-07 15:55 | 32.66825 | -83.62773 | 28877 ft | 501 kts | 152° |
| 2026-05-07 15:55 | 32.64014 | -83.60329 | 29192 ft | 500 kts | 151° |
| 2026-05-07 15:55 | 32.61233 | -83.57853 | 29522 ft | 500 kts | 150° |
| 2026-05-07 15:56 | 32.58468 | -83.55362 | 29827 ft | 499 kts | 150° |
| 2026-05-07 15:56 | 32.55713 | -83.52882 | 30210 ft | 495 kts | 150° |
| 2026-05-07 15:56 | 32.52981 | -83.50438 | 30693 ft | 489 kts | 150° |
| 2026-05-07 15:56 | 32.50275 | -83.48037 | 31178 ft | 483 kts | 151° |
| 2026-05-07 15:57 | 32.47600 | -83.45681 | 31676 ft | 477 kts | 151° |
| 2026-05-07 15:57 | 32.44946 | -83.43356 | 32177 ft | 471 kts | 152° |
| 2026-05-07 15:57 | 32.42322 | -83.41061 | 32671 ft | 466 kts | 151° |
| 2026-05-07 15:57 | 32.39730 | -83.38790 | 33198 ft | 461 kts | 151° |
| 2026-05-07 15:58 | 32.37201 | -83.36570 | 33733 ft | 456 kts | 151° |
| 2026-05-07 15:58 | 32.34670 | -83.34349 | 34238 ft | 450 kts | 152° |
| 2026-05-07 15:58 | 32.32174 | -83.32159 | 34753 ft | 444 kts | 152° |
| 2026-05-07 15:58 | 32.29712 | -83.30000 | 35245 ft | 437 kts | 152° |
| 2026-05-07 15:59 | 32.27291 | -83.27877 | 35742 ft | 430 kts | 153° |
| 2026-05-07 15:59 | 32.24887 | -83.25775 | 35958 ft | 431 kts | 153° |
| 2026-05-07 15:59 | 32.22461 | -83.23666 | 36015 ft | 436 kts | 153° |
| 2026-05-07 16:00 | 32.17495 | -83.19369 | 36016 ft | 449 kts | 153° |
| 2026-05-07 16:00 | 32.12408 | -83.14943 | 36024 ft | 460 kts | 151° |
| 2026-05-07 16:01 | 32.07200 | -83.10399 | 36013 ft | 471 kts | 151° |
| 2026-05-07 16:01 | 32.01866 | -83.05764 | 35987 ft | 481 kts | 151° |
| 2026-05-07 16:02 | 31.96446 | -83.01054 | 35994 ft | 486 kts | 151° |
| 2026-05-07 16:02 | 31.90997 | -82.96321 | 35991 ft | 487 kts | 151° |
| 2026-05-07 16:03 | 31.85547 | -82.91591 | 35994 ft | 489 kts | 150° |
| 2026-05-07 16:03 | 31.80065 | -82.86826 | 35995 ft | 493 kts | 147° |
| 2026-05-07 16:04 | 31.75954 | -82.82089 | 36001 ft | 501 kts | 139° |
| 2026-05-07 16:04 | 31.71237 | -82.76055 | 35993 ft | 502 kts | 138° |
| 2026-05-07 16:05 | 31.66512 | -82.70016 | 35996 ft | 502 kts | 138° |
| 2026-05-07 16:05 | 31.61784 | -82.63995 | 35994 ft | 502 kts | 138° |
| 2026-05-07 16:06 | 31.57047 | -82.57978 | 35973 ft | 502 kts | 138° |
| 2026-05-07 16:06 | 31.52309 | -82.51973 | 35988 ft | 502 kts | 138° |
| 2026-05-07 16:07 | 31.47569 | -82.45971 | 36039 ft | 501 kts | 138° |
| 2026-05-07 16:07 | 31.42834 | -82.39970 | 36039 ft | 501 kts | 138° |
| 2026-05-07 16:08 | 31.38094 | -82.33982 | 36039 ft | 502 kts | 138° |
| 2026-05-07 16:08 | 31.33348 | -82.27994 | 36038 ft | 502 kts | 138° |
| 2026-05-07 16:09 | 31.28629 | -82.22056 | 36006 ft | 502 kts | 138° |
| 2026-05-07 16:09 | 31.23870 | -82.16081 | 36016 ft | 503 kts | 137° |
| 2026-05-07 16:10 | 31.19105 | -82.10099 | 36015 ft | 503 kts | 137° |
| 2026-05-07 16:10 | 31.14335 | -82.04110 | 36019 ft | 503 kts | 137° |
| 2026-05-07 16:11 | 31.09575 | -81.98151 | 36018 ft | 495 kts | 138° |
| 2026-05-07 16:11 | 31.07267 | -81.95259 | 36023 ft | 478 kts | 138° |
| 2026-05-07 16:11 | 31.05038 | -81.92464 | 36027 ft | 464 kts | 138° |
| 2026-05-07 16:12 | 31.00690 | -81.87035 | 36026 ft | 455 kts | 139° |
| 2026-05-07 16:12 | 30.96359 | -81.81662 | 36027 ft | 454 kts | 139° |
| 2026-05-07 16:13 | 30.92036 | -81.76302 | 36028 ft | 453 kts | 139° |
| 2026-05-07 16:13 | 30.87726 | -81.70947 | 36028 ft | 453 kts | 139° |
| 2026-05-07 16:14 | 30.83343 | -81.65690 | 36033 ft | 449 kts | 145° |
| 2026-05-07 16:14 | 30.78287 | -81.61591 | 36041 ft | 440 kts | 156° |
| 2026-05-07 16:15 | 30.73053 | -81.57977 | 36050 ft | 441 kts | 156° |
| 2026-05-07 16:15 | 30.67788 | -81.54323 | 36070 ft | 441 kts | 156° |
| 2026-05-07 16:16 | 30.62519 | -81.50668 | 35768 ft | 445 kts | 156° |
| 2026-05-07 16:16 | 30.59812 | -81.48806 | 34652 ft | 460 kts | 155° |
| 2026-05-07 16:16 | 30.57020 | -81.46889 | 33619 ft | 471 kts | 155° |
| 2026-05-07 16:16 | 30.54186 | -81.44936 | 32721 ft | 475 kts | 155° |
| 2026-05-07 16:17 | 30.51331 | -81.42960 | 31792 ft | 481 kts | 155° |
| 2026-05-07 16:17 | 30.48439 | -81.40960 | 30823 ft | 487 kts | 155° |
| 2026-05-07 16:17 | 30.45506 | -81.38936 | 29660 ft | 494 kts | 155° |
| 2026-05-07 16:17 | 30.42573 | -81.36907 | 28537 ft | 487 kts | 155° |
| 2026-05-07 16:18 | 30.39695 | -81.34913 | 27484 ft | 478 kts | 155° |
| 2026-05-07 16:18 | 30.36855 | -81.32949 | 26456 ft | 472 kts | 155° |
| 2026-05-07 16:18 | 30.34091 | -81.31040 | 25882 ft | 455 kts | 156° |
| 2026-05-07 16:18 | 30.31405 | -81.29192 | 25176 ft | 443 kts | 157° |
| 2026-05-07 16:19 | 30.28691 | -81.27667 | 24504 ft | 424 kts | 167° |
| 2026-05-07 16:19 | 30.25962 | -81.26706 | 24190 ft | 396 kts | 176° |
| 2026-05-07 16:19 | 30.23324 | -81.26181 | 23608 ft | 379 kts | 183° |
| 2026-05-07 16:19 | 30.20712 | -81.25993 | 22772 ft | 372 kts | 186° |
| 2026-05-07 16:20 | 30.18169 | -81.25839 | 22286 ft | 360 kts | 186° |
| 2026-05-07 16:20 | 30.15709 | -81.25689 | 21806 ft | 348 kts | 186° |
| 2026-05-07 16:20 | 30.13324 | -81.25543 | 21337 ft | 338 kts | 186° |
| 2026-05-07 16:20 | 30.11012 | -81.25403 | 20895 ft | 328 kts | 187° |
| 2026-05-07 16:21 | 30.08766 | -81.25264 | 20452 ft | 318 kts | 186° |
| 2026-05-07 16:21 | 30.06586 | -81.25126 | 20031 ft | 310 kts | 186° |
| 2026-05-07 16:21 | 30.04461 | -81.24994 | 19616 ft | 302 kts | 186° |
| 2026-05-07 16:21 | 30.02388 | -81.24867 | 19217 ft | 295 kts | 187° |
| 2026-05-07 16:22 | 30.00355 | -81.24747 | 18817 ft | 290 kts | 187° |
| 2026-05-07 16:22 | 29.98349 | -81.24629 | 18424 ft | 288 kts | 187° |
| 2026-05-07 16:22 | 29.96351 | -81.24513 | 18012 ft | 288 kts | 186° |
| 2026-05-07 16:22 | 29.94336 | -81.24396 | 17550 ft | 291 kts | 186° |
| 2026-05-07 16:23 | 29.92305 | -81.24279 | 17141 ft | 293 kts | 186° |
| 2026-05-07 16:23 | 29.90264 | -81.24177 | 16740 ft | 294 kts | 186° |
| 2026-05-07 16:23 | 29.88238 | -81.24102 | 16342 ft | 296 kts | 186° |
| 2026-05-07 16:23 | 29.86145 | -81.24035 | 15932 ft | 298 kts | 186° |
| 2026-05-07 16:24 | 29.84064 | -81.23968 | 15527 ft | 300 kts | 186° |
| 2026-05-07 16:24 | 29.81995 | -81.23899 | 15104 ft | 303 kts | 185° |
| 2026-05-07 16:24 | 29.79885 | -81.23827 | 14704 ft | 304 kts | 185° |
| 2026-05-07 16:24 | 29.77761 | -81.23754 | 14291 ft | 307 kts | 184° |
| 2026-05-07 16:25 | 29.75620 | -81.23678 | 13870 ft | 309 kts | 184° |
| 2026-05-07 16:25 | 29.73467 | -81.23602 | 13414 ft | 310 kts | 184° |
| 2026-05-07 16:25 | 29.71310 | -81.23523 | 12986 ft | 310 kts | 184° |
| 2026-05-07 16:25 | 29.69151 | -81.23443 | 12556 ft | 310 kts | 184° |
| 2026-05-07 16:26 | 29.66994 | -81.23220 | 12142 ft | 314 kts | 175° |
| 2026-05-07 16:26 | 29.64894 | -81.22572 | 11977 ft | 310 kts | 165° |
| 2026-05-07 16:26 | 29.62941 | -81.21656 | 11988 ft | 296 kts | 163° |
| 2026-05-07 16:26 | 29.61081 | -81.20779 | 11991 ft | 281 kts | 164° |
| 2026-05-07 16:27 | 29.59314 | -81.19954 | 11992 ft | 268 kts | 165° |
| 2026-05-07 16:27 | 29.57582 | -81.19156 | 11522 ft | 276 kts | 165° |
| 2026-05-07 16:27 | 29.55727 | -81.18314 | 10584 ft | 295 kts | 164° |
| 2026-05-07 16:27 | 29.53790 | -81.17425 | 9652 ft | 304 kts | 163° |
| 2026-05-07 16:28 | 29.51807 | -81.16503 | 8677 ft | 310 kts | 162° |
| 2026-05-07 16:28 | 29.49796 | -81.15558 | 7727 ft | 315 kts | 161° |
| 2026-05-07 16:28 | 29.47757 | -81.14598 | 6801 ft | 318 kts | 161° |
| 2026-05-07 16:28 | 29.45706 | -81.13636 | 5846 ft | 318 kts | 161° |
| 2026-05-07 16:29 | 29.43664 | -81.12680 | 4899 ft | 317 kts | 161° |
| 2026-05-07 16:29 | 29.41624 | -81.11721 | 3943 ft | 316 kts | 160° |
| 2026-05-07 16:29 | 29.39613 | -81.10773 | 3295 ft | 304 kts | 161° |
| 2026-05-07 16:29 | 29.37736 | -81.09882 | 3097 ft | 279 kts | 161° |
| 2026-05-07 16:30 | 29.36025 | -81.09070 | 2991 ft | 253 kts | 161° |
| 2026-05-07 16:30 | 29.34503 | -81.08350 | 2995 ft | 229 kts | 162° |
| 2026-05-07 16:30 | 29.33035 | -81.07665 | 2998 ft | 227 kts | 162° |
| 2026-05-07 16:30 | 29.31576 | -81.06986 | 3000 ft | 226 kts | 161° |
| 2026-05-07 16:31 | 29.30136 | -81.06240 | 2994 ft | 230 kts | 149° |
| 2026-05-07 16:31 | 29.29100 | -81.04845 | 3002 ft | 232 kts | 115° |
| 2026-05-07 16:31 | 29.28686 | -81.03070 | 2851 ft | 233 kts | 97° |
| 2026-05-07 16:31 | 29.28978 | -81.01258 | 2560 ft | 234 kts | 63° |
| 2026-05-07 16:32 | 29.29819 | -80.99667 | 2271 ft | 234 kts | 55° |
| 2026-05-07 16:32 | 29.30759 | -80.98158 | 2042 ft | 230 kts | 53° |
| 2026-05-07 16:32 | 29.31680 | -80.96718 | 1987 ft | 219 kts | 53° |
| 2026-05-07 16:32 | 29.32576 | -80.95317 | 1994 ft | 218 kts | 54° |
| 2026-05-07 16:33 | 29.33473 | -80.93918 | 2000 ft | 217 kts | 53° |
| 2026-05-07 16:33 | 29.34191 | -80.92420 | 1990 ft | 214 kts | 81° |
| 2026-05-07 16:33 | 29.34097 | -80.90774 | 2001 ft | 207 kts | 118° |
| 2026-05-07 16:33 | 29.33216 | -80.89537 | 2007 ft | 200 kts | 150° |
| 2026-05-07 16:34 | 29.31964 | -80.88933 | 2006 ft | 196 kts | 169° |
| 2026-05-07 16:34 | 29.30637 | -80.88564 | 2005 ft | 197 kts | 172° |
| 2026-05-07 16:34 | 29.29295 | -80.88223 | 2007 ft | 197 kts | 172° |
| 2026-05-07 16:34 | 29.27952 | -80.87937 | 2001 ft | 195 kts | 181° |
| 2026-05-07 16:35 | 29.26649 | -80.88084 | 2006 ft | 189 kts | 200° |
| 2026-05-07 16:35 | 29.25458 | -80.88739 | 2007 ft | 188 kts | 219° |
| 2026-05-07 16:35 | 29.24571 | -80.89788 | 2009 ft | 185 kts | 238° |
| 2026-05-07 16:35 | 29.23991 | -80.91099 | 2008 ft | 185 kts | 244° |
| 2026-05-07 16:36 | 29.23451 | -80.92443 | 2007 ft | 186 kts | 244° |
| 2026-05-07 16:36 | 29.22908 | -80.93791 | 1961 ft | 188 kts | 244° |
| 2026-05-07 16:36 | 29.22358 | -80.95156 | 1784 ft | 189 kts | 243° |
| 2026-05-07 16:36 | 29.21807 | -80.96521 | 1558 ft | 189 kts | 245° |
| 2026-05-07 16:37 | 29.21254 | -80.97890 | 1320 ft | 190 kts | 243° |
| 2026-05-07 16:37 | 29.20703 | -80.99254 | 1104 ft | 185 kts | 244° |
| 2026-05-07 16:37 | 29.20180 | -81.00552 | 851 ft | 173 kts | 242° |
| 2026-05-07 16:37 | 29.19698 | -81.01746 | 653 ft | 159 kts | 241° |
| 2026-05-07 16:38 | 29.19255 | -81.02842 | 466 ft | 146 kts | 242° |
| 2026-05-07 16:38 | 29.18838 | -81.03883 | 254 ft | 143 kts | 240° |
| 2026-05-07 16:38 | 29.18426 | -81.04907 | 69 ft | 140 kts | 240° |
| 2026-05-07 16:38 | 29.18044 | -81.05827 | 42 ft | 102 kts | 245° |
| 2026-05-07 16:39 | 29.17871 | -81.06262 | 42 ft | 32 kts | 245° |
| 2026-05-07 16:39 | 29.17854 | -81.06441 | 39 ft | 15 kts | 304° |
| 2026-05-07 16:39 | 29.17924 | -81.06472 | 42 ft | 10 kts | 23° |
| 2026-05-07 16:39 | 29.17966 | -81.06423 | 41 ft | 8 kts | 57° |
| 2026-05-07 16:40 | 29.17985 | -81.06369 | 43 ft | 7 kts | 72° |
| 2026-05-07 16:40 | 29.18000 | -81.06315 | 43 ft | 11 kts | 72° |
| 2026-05-07 16:40 | 29.18047 | -81.06197 | 40 ft | 14 kts | 63° |
| 2026-05-07 16:40 | 29.18089 | -81.06098 | 39 ft | 13 kts | 65° |
| 2026-05-07 16:41 | 29.18125 | -81.06006 | 43 ft | 12 kts | 66° |
| 2026-05-07 16:41 | 29.18158 | -81.05924 | 43 ft | 11 kts | 65° |
| 2026-05-07 16:41 | 29.18189 | -81.05850 | 42 ft | 10 kts | 62° |
| 2026-05-07 16:41 | 29.18239 | -81.05828 | 42 ft | 8 kts | 329° |
| 2026-05-07 16:42 | 29.18241 | -81.05882 | 42 ft | 9 kts | 253° |
| 2026-05-07 16:42 | 29.18221 | -81.05955 | 43 ft | 10 kts | 254° |
| 2026-05-07 16:42 | 29.18253 | -81.06013 | 43 ft | 8 kts | 326° |
| 2026-05-07 16:42 | 29.18258 | -81.06016 | 43 ft | 0 kts | 328° |
| 2026-05-07 16:43 | 29.18281 | -81.06032 | 43 ft | 5 kts | 330° |
| 2026-05-07 16:44 | 29.18287 | -81.06036 | 43 ft | 2 kts | 330° |
| 2026-05-07 16:44 | 29.18305 | -81.06048 | 43 ft | 2 kts | 330° |
| 2026-05-07 16:44 | 29.18316 | -81.06055 | 43 ft | 1 kts | 330° |
| 2026-05-07 16:44 | 29.18317 | -81.06056 | 43 ft | 0 kts | 330° |
| 2026-05-07 16:45 | 29.18315 | -81.06054 | 43 ft | 1 kts | 330° |